<?xml version="1.0" encoding="utf-8"?>
<gpx xmlns:xsi="http://www.w3.org/2001/XMLSchema-instance" xmlns:xsd="http://www.w3.org/2001/XMLSchema" version="1.1" creator="Shapelink.com" xmlns="http://www.topografix.com/GPX/1/1" xmlns:gpxtpx="http://www.garmin.com/xmlschemas/TrackPointExtension/v1">
  <metadata>
    <name>Övrigt 3.28 km, 2020-08-01</name>
    <desc></desc>
    <author><name>Marian Moron</name></author> 
    <time>2020-08-01T10:59:57Z</time>
  </metadata>
  <trk>
    <name>Övrigt 3.28 km, 2020-08-01</name>
    <trkseg>
      <trkpt lat="51.21724120468" lon="4.478384210275">
        <ele>38.2</ele>
        <time>2020-08-01T10:59:57Z</time>
      </trkpt>
      <trkpt lat="51.217315552133" lon="4.477688177299">
        <ele>33</ele>
        <time>2020-08-01T11:00:42Z</time>
      </trkpt>
      <trkpt lat="51.217368861017" lon="4.477461279266">
        <ele>31</ele>
        <time>2020-08-01T11:00:55Z</time>
      </trkpt>
      <trkpt lat="51.217387971749" lon="4.476743704807">
        <ele>29</ele>
        <time>2020-08-01T11:01:37Z</time>
      </trkpt>
      <trkpt lat="51.217387636473" lon="4.476022693769">
        <ele>29.4</ele>
        <time>2020-08-01T11:02:16Z</time>
      </trkpt>
      <trkpt lat="51.217374141614" lon="4.475302520921">
        <ele>30.6</ele>
        <time>2020-08-01T11:02:56Z</time>
      </trkpt>
      <trkpt lat="51.217438095511" lon="4.474612942008">
        <ele>31.2</ele>
        <time>2020-08-01T11:03:40Z</time>
      </trkpt>
      <trkpt lat="51.217433569285" lon="4.474523255678">
        <ele>31.6</ele>
        <time>2020-08-01T11:03:45Z</time>
      </trkpt>
      <trkpt lat="51.217497942277" lon="4.473821606829">
        <ele>30.8</ele>
        <time>2020-08-01T11:04:32Z</time>
      </trkpt>
      <trkpt lat="51.217492829318" lon="4.473583812326">
        <ele>28.6</ele>
        <time>2020-08-01T11:04:46Z</time>
      </trkpt>
      <trkpt lat="51.217447650877" lon="4.47307972486">
        <ele>18.4</ele>
        <time>2020-08-01T11:05:17Z</time>
      </trkpt>
      <trkpt lat="51.217446728868" lon="4.472716956228">
        <ele>15</ele>
        <time>2020-08-01T11:05:39Z</time>
      </trkpt>
      <trkpt lat="51.217475394966" lon="4.472403473168">
        <ele>5.6</ele>
        <time>2020-08-01T11:05:56Z</time>
      </trkpt>
      <trkpt lat="51.217497858458" lon="4.471704757984">
        <ele>0</ele>
        <time>2020-08-01T11:06:35Z</time>
      </trkpt>
      <trkpt lat="51.217508168195" lon="4.470979472177">
        <ele>0</ele>
        <time>2020-08-01T11:07:14Z</time>
      </trkpt>
      <trkpt lat="51.217479418278" lon="4.470758273836">
        <ele>0</ele>
        <time>2020-08-01T11:08:17Z</time>
      </trkpt>
      <trkpt lat="51.217476316975" lon="4.470798255499">
        <ele>0</ele>
        <time>2020-08-01T11:08:20Z</time>
      </trkpt>
      <trkpt lat="51.217503055236" lon="4.471208298047">
        <ele>1.4</ele>
        <time>2020-08-01T11:08:46Z</time>
      </trkpt>
      <trkpt lat="51.21747673607" lon="4.471924112307">
        <ele>2.4</ele>
        <time>2020-08-01T11:09:37Z</time>
      </trkpt>
      <trkpt lat="51.217390989233" lon="4.472640094205">
        <ele>18.2</ele>
        <time>2020-08-01T11:10:14Z</time>
      </trkpt>
      <trkpt lat="51.217386379188" lon="4.473357584845">
        <ele>12</ele>
        <time>2020-08-01T11:11:02Z</time>
      </trkpt>
      <trkpt lat="51.217343966774" lon="4.473554056581">
        <ele>12</ele>
        <time>2020-08-01T11:11:14Z</time>
      </trkpt>
      <trkpt lat="51.217309349527" lon="4.474264171149">
        <ele>7.6</ele>
        <time>2020-08-01T11:12:02Z</time>
      </trkpt>
      <trkpt lat="51.217285544931" lon="4.474982080884">
        <ele>5.4</ele>
        <time>2020-08-01T11:12:55Z</time>
      </trkpt>
      <trkpt lat="51.217238271015" lon="4.475700577352">
        <ele>7.4</ele>
        <time>2020-08-01T11:13:42Z</time>
      </trkpt>
      <trkpt lat="51.217211281297" lon="4.476412619757">
        <ele>8.4</ele>
        <time>2020-08-01T11:14:31Z</time>
      </trkpt>
      <trkpt lat="51.21715487111" lon="4.477125751809">
        <ele>4.2</ele>
        <time>2020-08-01T11:15:20Z</time>
      </trkpt>
      <trkpt lat="51.217152859454" lon="4.477839135318">
        <ele>6.2</ele>
        <time>2020-08-01T11:16:06Z</time>
      </trkpt>
      <trkpt lat="51.217161492811" lon="4.47805689708">
        <ele>9.8</ele>
        <time>2020-08-01T11:16:59Z</time>
      </trkpt>
      <trkpt lat="51.217185465045" lon="4.47734778834">
        <ele>6</ele>
        <time>2020-08-01T11:17:47Z</time>
      </trkpt>
      <trkpt lat="51.217193511669" lon="4.477278386208">
        <ele>5.8</ele>
        <time>2020-08-01T11:17:51Z</time>
      </trkpt>
      <trkpt lat="51.217222513043" lon="4.476558632455">
        <ele>10</ele>
        <time>2020-08-01T11:18:35Z</time>
      </trkpt>
      <trkpt lat="51.217245730906" lon="4.476113805022">
        <ele>12</ele>
        <time>2020-08-01T11:19:05Z</time>
      </trkpt>
      <trkpt lat="51.217245814725" lon="4.475389189767">
        <ele>9.8</ele>
        <time>2020-08-01T11:19:47Z</time>
      </trkpt>
      <trkpt lat="51.217273642633" lon="4.474666669987">
        <ele>9.4</ele>
        <time>2020-08-01T11:20:32Z</time>
      </trkpt>
      <trkpt lat="51.217316138866" lon="4.473948173519">
        <ele>8.8</ele>
        <time>2020-08-01T11:21:14Z</time>
      </trkpt>
      <trkpt lat="51.217343799136" lon="4.473221127513">
        <ele>15.2</ele>
        <time>2020-08-01T11:21:57Z</time>
      </trkpt>
      <trkpt lat="51.217365424438" lon="4.472490393471">
        <ele>15</ele>
        <time>2020-08-01T11:22:44Z</time>
      </trkpt>
      <trkpt lat="51.217383613161" lon="4.471776507048">
        <ele>13.2</ele>
        <time>2020-08-01T11:23:24Z</time>
      </trkpt>
      <trkpt lat="51.217433820742" lon="4.471277448722">
        <ele>11.2</ele>
        <time>2020-08-01T11:23:58Z</time>
      </trkpt>
      <trkpt lat="51.217449411076" lon="4.471531085016">
        <ele>7</ele>
        <time>2020-08-01T11:24:32Z</time>
      </trkpt>
      <trkpt lat="51.217406747205" lon="4.472129720314">
        <ele>4</ele>
        <time>2020-08-01T11:25:13Z</time>
      </trkpt>
      <trkpt lat="51.217408423585" lon="4.4728500608">
        <ele>17.8</ele>
        <time>2020-08-01T11:25:59Z</time>
      </trkpt>
      <trkpt lat="51.217328879354" lon="4.473558415169">
        <ele>8</ele>
        <time>2020-08-01T11:26:39Z</time>
      </trkpt>
      <trkpt lat="51.217317144694" lon="4.474271128126">
        <ele>2</ele>
        <time>2020-08-01T11:27:27Z</time>
      </trkpt>
      <trkpt lat="51.217295603211" lon="4.474882503912">
        <ele>1.6</ele>
        <time>2020-08-01T11:28:05Z</time>
      </trkpt>
      <trkpt lat="51.217286215483" lon="4.475122980623">
        <ele>0.6</ele>
        <time>2020-08-01T11:28:19Z</time>
      </trkpt>
      <trkpt lat="51.217245647087" lon="4.475849272258">
        <ele>0</ele>
        <time>2020-08-01T11:29:07Z</time>
      </trkpt>
      <trkpt lat="51.217230559667" lon="4.476568020183">
        <ele>3</ele>
        <time>2020-08-01T11:29:48Z</time>
      </trkpt>
      <trkpt lat="51.217205665424" lon="4.477279559674">
        <ele>4</ele>
        <time>2020-08-01T11:30:33Z</time>
      </trkpt>
      <trkpt lat="51.21719007509" lon="4.477725225297">
        <ele>3.2</ele>
        <time>2020-08-01T11:31:01Z</time>
      </trkpt>
      <trkpt lat="51.217153949101" lon="4.478442883575">
        <ele>8.4</ele>
        <time>2020-08-01T11:31:41Z</time>
      </trkpt>
      <trkpt lat="51.21713978369" lon="4.478549166067">
        <ele>8.6</ele>
        <time>2020-08-01T11:31:48Z</time>
      </trkpt>
      <trkpt lat="51.217134503093" lon="4.47865704112">
        <ele>9.2</ele>
        <time>2020-08-01T11:31:54Z</time>
      </trkpt>
      <trkpt lat="51.21713391636" lon="4.478827445147">
        <ele>9.6</ele>
        <time>2020-08-01T11:32:06Z</time>
      </trkpt>
      <trkpt lat="51.217099634389" lon="4.478611359765">
        <ele>9.6</ele>
        <time>2020-08-01T11:33:04Z</time>
      </trkpt>
      <trkpt lat="51.217108519203" lon="4.478457384262">
        <ele>11.6</ele>
        <time>2020-08-01T11:33:16Z</time>
      </trkpt>
      <trkpt lat="51.217145567201" lon="4.478129316696">
        <ele>13.4</ele>
        <time>2020-08-01T11:33:39Z</time>
      </trkpt>
      <trkpt lat="51.217182112285" lon="4.477418363938">
        <ele>5.4</ele>
        <time>2020-08-01T11:34:32Z</time>
      </trkpt>
      <trkpt lat="51.217194014583" lon="4.47700580682">
        <ele>9</ele>
        <time>2020-08-01T11:35:07Z</time>
      </trkpt>
      <trkpt lat="51.217234918255" lon="4.476291501302">
        <ele>11.2</ele>
        <time>2020-08-01T11:36:02Z</time>
      </trkpt>
      <trkpt lat="51.217235504988" lon="4.476277671167">
        <ele>11.4</ele>
        <time>2020-08-01T11:36:03Z</time>
      </trkpt>
      <trkpt lat="51.217250843865" lon="4.475565209667">
        <ele>8.6</ele>
        <time>2020-08-01T11:36:58Z</time>
      </trkpt>
      <trkpt lat="51.217291328442" lon="4.474861465343">
        <ele>4.2</ele>
        <time>2020-08-01T11:38:01Z</time>
      </trkpt>
      <trkpt lat="51.217305326215" lon="4.474626604505">
        <ele>4</ele>
        <time>2020-08-01T11:38:18Z</time>
      </trkpt>
      <trkpt lat="51.217326532422" lon="4.473921351439">
        <ele>5.4</ele>
        <time>2020-08-01T11:39:06Z</time>
      </trkpt>
      <trkpt lat="51.217350756113" lon="4.473212242699">
        <ele>8.6</ele>
        <time>2020-08-01T11:39:55Z</time>
      </trkpt>
      <trkpt lat="51.217387720292" lon="4.472911081032">
        <ele>0.2</ele>
        <time>2020-08-01T11:40:42Z</time>
      </trkpt>
      <trkpt lat="51.217396688925" lon="4.473089531683">
        <ele>0</ele>
        <time>2020-08-01T11:40:53Z</time>
      </trkpt>
      <trkpt lat="51.217373387243" lon="4.473804675391">
        <ele>1.4</ele>
        <time>2020-08-01T11:41:42Z</time>
      </trkpt>
      <trkpt lat="51.217346565163" lon="4.474524177687">
        <ele>0</ele>
        <time>2020-08-01T11:42:35Z</time>
      </trkpt>
      <trkpt lat="51.217343380041" lon="4.475070677567">
        <ele>0.6</ele>
        <time>2020-08-01T11:43:15Z</time>
      </trkpt>
      <trkpt lat="51.21730071617" lon="4.475784396352">
        <ele>0</ele>
        <time>2020-08-01T11:43:58Z</time>
      </trkpt>
      <trkpt lat="51.217257046471" lon="4.476496438757">
        <ele>0</ele>
        <time>2020-08-01T11:44:41Z</time>
      </trkpt>
      <trkpt lat="51.217236510816" lon="4.477219377632">
        <ele>0</ele>
        <time>2020-08-01T11:45:25Z</time>
      </trkpt>
      <trkpt lat="51.217226284898" lon="4.477951871873">
        <ele>0</ele>
        <time>2020-08-01T11:46:09Z</time>
      </trkpt>
      <trkpt lat="51.217164175019" lon="4.478677660594">
        <ele>1.6</ele>
        <time>2020-08-01T11:46:57Z</time>
      </trkpt>
      <trkpt lat="51.217138358767" lon="4.479395989424">
        <ele>3.4</ele>
        <time>2020-08-01T11:47:39Z</time>
      </trkpt>
      <trkpt lat="51.217095527258" lon="4.479771582363">
        <ele>1.6</ele>
        <time>2020-08-01T11:48:04Z</time>
      </trkpt>
      <trkpt lat="51.217090162842" lon="4.480488234813">
        <ele>0</ele>
        <time>2020-08-01T11:48:45Z</time>
      </trkpt>
      <trkpt lat="51.21706686116" lon="4.481214107353">
        <ele>0.4</ele>
        <time>2020-08-01T11:49:29Z</time>
      </trkpt>
      <trkpt lat="51.216690681488" lon="4.481435724789">
        <ele>0</ele>
        <time>2020-08-01T11:50:06Z</time>
      </trkpt>
      <trkpt lat="51.216492030458" lon="4.481415608229">
        <ele>0</ele>
        <time>2020-08-01T11:50:24Z</time>
      </trkpt>
    </trkseg>
  </trk>
</gpx>